KLVK 190953Z AUTO 00000KT 8SM CLR 10/07 A2992 RMK AO2 SLP128 T01000067